Time;durP1;ratioP1;P1;durP2;ratioP2;P2;SDS_P1;SDS_P2;PMS_P1;PMS_P2;Temp;Humidity;BMP_temperature;BMP_pressure;BME280_temperature;BME280_humidity;BME280_pressure;Samples;Min_cycle;Max_cycle;Signal;HPM_P1;HPM_P2
2020/12/30 03:45:56;;;;;;;5.15;2.92;;;1.30;99.90;;;;;;5879163;23;89592;-86
2020/12/30 03:48:29;;;;;;;3.60;2.72;;;1.30;99.90;;;;;;4947243;28;87789;-88
2020/12/30 03:50:54;;;;;;;2.90;2.08;;;1.40;99.90;;;;;;4945880;28;86892;-89
2020/12/30 03:53:20;;;;;;;4.07;2.10;;;1.50;99.50;;;;;;4944729;28;87252;-89
2020/12/30 03:55:46;;;;;;;4.65;2.40;;;1.60;98.80;;;;;;4932931;28;89703;-88
2020/12/30 03:58:11;;;;;;;5.93;2.92;;;1.60;98.70;;;;;;4949118;28;86792;-88
2020/12/30 04:00:38;;;;;;;4.72;3.17;;;1.60;98.70;;;;;;4931046;28;87307;-88
2020/12/30 04:03:03;;;;;;;4.13;2.05;;;1.60;99.20;;;;;;4928394;28;88163;-89
2020/12/30 04:05:29;;;;;;;4.50;2.97;;;1.60;98.60;;;;;;4946803;28;86062;-88
2020/12/30 04:07:55;;;;;;;3.20;2.90;;;1.60;99.70;;;;;;4941644;28;86955;-86
2020/12/30 04:10:20;;;;;;;2.75;2.38;;;1.60;97.20;;;;;;4937654;28;86332;-87
2020/12/30 04:12:46;;;;;;;3.00;2.25;;;1.60;97.50;;;;;;4920658;28;87749;-89
2020/12/30 04:15:12;;;;;;;3.75;2.17;;;;;;;;;;4947346;28;88263;-90
2020/12/30 04:17:38;;;;;;;4.80;2.13;;;1.60;96.40;;;;;;4950567;28;86229;-87
2020/12/30 04:20:03;;;;;;;3.78;2.08;;;1.70;96.30;;;;;;4949166;28;86524;-88
2020/12/30 04:22:29;;;;;;;4.82;2.22;;;1.70;95.40;;;;;;4937090;28;87391;-89
2020/12/30 04:24:55;;;;;;;3.60;2.20;;;1.80;95.00;;;;;;4944911;28;87122;-89
2020/12/30 04:27:20;;;;;;;3.85;2.15;;;1.80;94.60;;;;;;4947488;28;86828;-88
2020/12/30 04:29:46;;;;;;;4.35;1.80;;;1.80;94.30;;;;;;4945170;28;86056;-89
2020/12/30 04:32:12;;;;;;;3.13;1.92;;;1.80;94.30;;;;;;4930811;28;88283;-88
2020/12/30 04:34:38;;;;;;;5.07;2.20;;;1.80;94.10;;;;;;4942587;28;87406;-88
2020/12/30 04:37:03;;;;;;;4.65;2.40;;;1.80;93.70;;;;;;4939612;28;87612;-88
2020/12/30 04:39:29;;;;;;;5.88;1.95;;;;;;;;;;4925232;28;86402;-89
2020/12/30 04:42:00;;;;;;;3.13;2.33;;;1.80;93.20;;;;;;4950184;28;87141;-88
2020/12/30 04:44:31;;;;;;;4.05;2.40;;;1.80;93.60;;;;;;4950349;28;87868;-88
2020/12/30 04:46:58;;;;;;;2.72;1.67;;;1.80;93.80;;;;;;4935116;28;87491;-88
2020/12/30 04:49:24;;;;;;;3.95;2.42;;;1.80;94.00;;;;;;4932274;28;87196;-88
2020/12/30 04:51:52;;;;;;;5.25;2.30;;;1.80;94.30;;;;;;4929355;28;89972;-87
2020/12/30 04:54:23;;;;;;;4.55;2.05;;;1.80;94.20;;;;;;4942095;28;86993;-88
2020/12/30 04:57:00;;;;;;;3.58;2.55;;;1.70;94.50;;;;;;4946581;28;86623;-89
2020/12/30 04:59:29;;;;;;;5.68;2.80;;;1.80;94.60;;;;;;4946142;28;86852;-88
2020/12/30 05:02:03;;;;;;;3.45;2.70;;;1.80;94.60;;;;;;4944299;28;88474;-88
2020/12/30 05:04:33;;;;;;;3.63;2.90;;;1.80;95.30;;;;;;4939512;28;87094;-90
2020/12/30 05:07:06;;;;;;;4.70;2.90;;;1.80;96.80;;;;;;4941232;28;86444;-88
2020/12/30 05:09:34;;;;;;;2.65;2.10;;;1.90;99.40;;;;;;4933314;28;87172;-88
2020/12/30 05:12:00;;;;;;;3.63;2.80;;;1.90;99.40;;;;;;4940674;28;87661;-88
2020/12/30 05:14:26;;;;;;;4.47;2.70;;;1.90;99.70;;;;;;4950513;28;86838;-87
2020/12/30 05:16:53;;;;;;;5.40;3.03;;;1.90;99.90;;;;;;4947475;28;86856;-89
2020/12/30 05:19:21;;;;;;;4.20;2.80;;;1.90;99.90;;;;;;4944369;28;86315;-87
2020/12/30 05:21:46;;;;;;;3.60;2.83;;;1.90;99.90;;;;;;4946179;28;87510;-85
2020/12/30 05:24:12;;;;;;;5.22;3.60;;;1.90;99.90;;;;;;4939020;28;86991;-87
2020/12/30 05:26:41;;;;;;;3.65;2.75;;;2.00;99.90;;;;;;4947360;28;87886;-88
2020/12/30 05:29:08;;;;;;;3.15;2.70;;;1.90;99.90;;;;;;4942951;28;86884;-88
2020/12/30 05:31:33;;;;;;;4.90;3.08;;;1.90;98.90;;;;;;4946567;28;91505;-88
2020/12/30 05:33:59;;;;;;;5.25;3.00;;;1.80;97.60;;;;;;4944669;28;87038;-88
2020/12/30 05:36:27;;;;;;;7.28;3.35;;;1.60;98.40;;;;;;4944116;28;86341;-87
2020/12/30 05:38:53;;;;;;;7.47;3.38;;;1.50;98.20;;;;;;4935802;28;86229;-88
2020/12/30 05:41:22;;;;;;;5.47;3.53;;;1.40;99.10;;;;;;4944174;28;88045;-87
2020/12/30 05:43:48;;;;;;;5.00;3.38;;;1.30;98.40;;;;;;4934904;28;88940;-87
2020/12/30 05:46:28;;;;;;;6.28;3.90;;;1.40;98.50;;;;;;4948892;28;87121;-87
2020/12/30 05:48:54;;;;;;;5.90;3.45;;;1.40;98.50;;;;;;4947746;28;86688;-87
2020/12/30 05:51:29;;;;;;;7.28;3.85;;;1.30;98.20;;;;;;4944108;28;91685;-87
2020/12/30 05:54:12;;;;;;;4.60;3.65;;;1.30;98.60;;;;;;4938688;28;87891;-86
2020/12/30 05:56:39;;;;;;;4.95;3.65;;;1.20;98.80;;;;;;4934860;28;86892;-89
2020/12/30 05:59:06;;;;;;;6.65;3.10;;;1.20;98.40;;;;;;4933489;28;87839;-87
2020/12/30 06:01:34;;;;;;;1.52;1.40;;;1.10;98.70;;;;;;4939899;28;86818;-87
2020/12/30 06:04:15;;;;;;;3.50;2.33;;;1.10;97.10;;;;;;4932406;28;87504;-90
2020/12/30 06:06:47;;;;;;;2.47;1.30;;;1.20;96.40;;;;;;4938701;28;86703;-87
2020/12/30 06:09:21;;;;;;;2.92;2.05;;;1.20;95.80;;;;;;4935734;28;86079;-89
2020/12/30 06:11:54;;;;;;;1.92;1.42;;;1.20;95.60;;;;;;4946085;28;87769;-89
2020/12/30 06:14:21;;;;;;;5.72;3.08;;;1.20;95.30;;;;;;4940504;28;87976;-89
2020/12/30 06:16:48;;;;;;;2.97;2.40;;;1.20;95.30;;;;;;4944115;28;87902;-89
2020/12/30 06:19:14;;;;;;;3.67;2.88;;;1.20;95.30;;;;;;4938487;28;86909;-89
2020/12/30 06:21:43;;;;;;;4.18;2.08;;;1.20;95.80;;;;;;4936284;28;90360;-88
2020/12/30 06:24:15;;;;;;;6.88;3.25;;;1.20;95.60;;;;;;4931247;28;89245;-88
2020/12/30 06:26:42;;;;;;;;;;;1.30;95.50;;;;;;4941276;28;86482;-88
2020/12/30 06:29:17;;;;;;;7.18;5.07;;;1.60;99.90;;;;;;4933216;28;86281;-89
2020/12/30 06:31:47;;;;;;;6.82;3.30;;;1.50;98.60;;;;;;4930531;28;88707;-89
2020/12/30 06:34:16;;;;;;;6.00;3.25;;;1.60;99.60;;;;;;4940790;28;86826;-88
2020/12/30 06:36:43;;;;;;;13.13;7.38;;;1.60;99.80;;;;;;4943534;28;86205;-89
2020/12/30 06:39:23;;;;;;;8.02;4.22;;;1.70;99.90;;;;;;4945890;28;86820;-88
2020/12/30 06:41:59;;;;;;;6.88;4.13;;;1.80;99.90;;;;;;4937449;28;91681;-89
2020/12/30 06:44:39;;;;;;;6.40;3.80;;;1.80;99.90;;;;;;4936083;28;90987;-89
2020/12/30 06:47:06;;;;;;;5.57;3.40;;;1.90;99.90;;;;;;4943917;28;88052;-89
2020/12/30 06:49:32;;;;;;;4.95;3.30;;;1.90;99.20;;;;;;4960753;28;87835;-88
2020/12/30 06:51:58;;;;;;;6.53;3.42;;;1.90;97.60;;;;;;4942726;28;90368;-88
2020/12/30 06:54:47;;;;;;;5.25;4.18;;;1.90;96.20;;;;;;4964010;28;87304;-88
2020/12/30 06:57:37;;;;;;;5.63;3.17;;;1.90;96.70;;;;;;4954377;28;86231;-88
2020/12/30 07:00:24;;;;;;;5.80;2.92;;;1.80;96.40;;;;;;4963468;28;85871;-87
2020/12/30 07:03:15;;;;;;;4.80;3.10;;;1.70;96.60;;;;;;4959354;28;88023;-87
2020/12/30 07:05:41;;;;;;;4.72;3.42;;;1.70;96.50;;;;;;4963067;28;87416;-88
2020/12/30 07:08:08;;;;;;;6.15;3.30;;;1.60;96.80;;;;;;4956506;28;87617;-88
2020/12/30 07:10:44;;;;;;;4.65;3.17;;;1.50;96.70;;;;;;4970323;28;86210;-87
2020/12/30 07:16:36;;;;;;;7.10;3.35;;;1.40;96.20;;;;;;4954763;28;86291;-87
2020/12/30 07:19:09;;;;;;;5.90;4.05;;;1.40;95.40;;;;;;4955506;28;86784;-88
2020/12/30 07:22:02;;;;;;;5.90;3.10;;;1.20;96.20;;;;;;4957399;28;86838;-88
2020/12/30 07:24:37;;;;;;;4.20;3.00;;;1.20;96.20;;;;;;4954945;28;87293;-89
2020/12/30 07:27:08;;;;;;;4.57;3.53;;;1.20;96.30;;;;;;4969542;28;87104;-88
2020/12/30 07:29:34;;;;;;;6.30;4.72;;;;;;;;;;4957811;28;86975;-88
2020/12/30 07:32:05;;;;;;;6.72;5.13;;;1.50;95.90;;;;;;4969318;28;86964;-86
2020/12/30 07:34:34;;;;;;;7.03;3.97;;;1.50;96.10;;;;;;4951143;28;88399;-87
2020/12/30 07:37:02;;;;;;;2.08;1.77;;;1.60;95.90;;;;;;4954764;28;89237;-87
2020/12/30 07:39:39;;;;;;;2.67;2.25;;;1.50;94.20;;;;;;4970189;28;86803;-87
2020/12/30 07:42:06;;;;;;;3.92;2.65;;;1.50;92.10;;;;;;4949329;28;86627;-88
2020/12/30 07:44:32;;;;;;;3.13;1.98;;;1.50;91.60;;;;;;4953597;28;89812;-88
2020/12/30 07:47:05;;;;;;;4.07;2.15;;;1.50;91.60;;;;;;4942075;28;90333;-87
2020/12/30 07:49:32;;;;;;;2.95;1.90;;;1.50;91.70;;;;;;4936994;28;86968;-88
2020/12/30 07:52:00;;;;;;;4.38;2.28;;;1.50;91.60;;;;;;4934674;28;86692;-87
2020/12/30 07:54:27;;;;;;;4.75;2.10;;;1.50;91.60;;;;;;4939090;28;87666;-88
2020/12/30 07:57:00;;;;;;;3.83;1.90;;;1.60;91.30;;;;;;4931080;28;86763;-86
2020/12/30 07:59:27;;;;;;;4.60;2.60;;;1.70;91.30;;;;;;4933734;28;87475;-87
2020/12/30 08:02:04;;;;;;;2.95;2.08;;;1.80;90.70;;;;;;4936817;28;86893;-86
2020/12/30 08:04:32;;;;;;;4.60;4.10;;;1.90;90.20;;;;;;4944319;28;87306;-87
2020/12/30 08:06:59;;;;;;;3.85;3.45;;;2.00;90.00;;;;;;4930207;28;86240;-87
2020/12/30 08:09:26;;;;;;;6.07;3.58;;;1.90;90.20;;;;;;4933125;28;87439;-86
2020/12/30 08:11:54;;;;;;;6.13;2.80;;;2.00;90.50;;;;;;4948287;28;86839;-87
2020/12/30 08:14:21;;;;;;;4.03;3.72;;;1.80;89.60;;;;;;4950557;28;87361;-85
2020/12/30 08:17:08;;;;;;;6.25;2.65;;;1.90;90.00;;;;;;4939462;28;87210;-86
2020/12/30 08:19:42;;;;;;;4.97;4.55;;;1.80;90.40;;;;;;4954973;28;86812;-85
2020/12/30 08:22:23;;;;;;;4.95;3.70;;;2.20;90.40;;;;;;4948403;28;86609;-86
2020/12/30 08:24:55;;;;;;;4.57;2.65;;;2.00;89.70;;;;;;4950256;28;87851;-87
2020/12/30 08:27:22;;;;;;;5.47;3.33;;;2.10;89.80;;;;;;4947346;28;89570;-87
2020/12/30 08:29:48;;;;;;;5.80;3.17;;;2.10;90.60;;;;;;4951205;28;86859;-86
2020/12/30 08:32:41;;;;;;;5.10;3.17;;;2.20;90.20;;;;;;4947557;28;86980;-86
2020/12/30 08:35:10;;;;;;;5.60;3.40;;;2.40;89.80;;;;;;4938252;28;90525;-87
2020/12/30 08:37:41;;;;;;;6.72;4.70;;;2.80;87.10;;;;;;4947827;28;87420;-87
2020/12/30 08:40:22;;;;;;;6.03;3.88;;;2.80;87.50;;;;;;4949189;28;86884;-89
2020/12/30 08:42:53;;;;;;;5.05;4.03;;;3.10;87.60;;;;;;4937675;28;87207;-87
2020/12/30 08:45:30;;;;;;;7.32;5.30;;;3.50;84.80;;;;;;4935761;28;87319;-87
2020/12/30 08:47:58;;;;;;;7.75;5.18;;;3.70;83.20;;;;;;4956974;28;86843;-88
2020/12/30 08:50:25;;;;;;;5.57;5.03;;;3.90;81.10;;;;;;4958816;28;87725;-88
2020/12/30 08:52:52;;;;;;;7.30;4.47;;;;;;;;;;4962208;28;86839;-89
2020/12/30 08:55:19;;;;;;;7.53;3.75;;;4.10;76.60;;;;;;4959015;28;86937;-89
2020/12/30 08:57:49;;;;;;;5.97;3.83;;;4.30;76.40;;;;;;4964111;28;87158;-88
2020/12/30 09:00:15;;;;;;;6.53;3.57;;;4.30;76.20;;;;;;4952696;28;86905;-88
2020/12/30 09:02:41;;;;;;;3.85;3.45;;;;;;;;;;4964857;28;86486;-88
2020/12/30 09:05:29;;;;;;;3.90;3.47;;;4.40;73.40;;;;;;4946942;28;88068;-92
2020/12/30 09:07:55;;;;;;;3.63;2.15;;;;;;;;;;4945802;28;89940;-90
2020/12/30 09:10:21;;;;;;;5.47;4.20;;;;;;;;;;4953957;28;86550;-91
2020/12/30 09:12:49;;;;;;;4.70;3.38;;;;;;;;;;4948457;28;86577;-89
2020/12/30 09:15:15;;;;;;;6.13;4.13;;;4.50;73.00;;;;;;4942639;28;91078;-90
2020/12/30 09:17:43;;;;;;;4.15;3.83;;;4.60;71.50;;;;;;4969714;28;90462;-90
2020/12/30 09:20:15;;;;;;;4.60;3.40;;;4.60;70.90;;;;;;4951407;28;86629;-89
2020/12/30 09:22:43;;;;;;;4.55;3.10;;;4.70;70.70;;;;;;4970263;28;86607;-88
2020/12/30 09:25:25;;;;;;;3.42;2.63;;;4.50;71.00;;;;;;4939513;28;88005;-91
2020/12/30 09:27:52;;;;;;;6.32;3.58;;;;;;;;;;4954792;28;88170;-84
2020/12/30 09:30:19;;;;;;;5.07;3.85;;;5.70;69.30;;;;;;4944012;28;86797;-88
2020/12/30 09:32:46;;;;;;;5.15;3.60;;;6.40;67.80;;;;;;4942439;28;85944;-83
2020/12/30 09:35:14;;;;;;;5.38;3.97;;;7.10;66.20;;;;;;4960887;28;86647;-86
2020/12/30 09:37:41;;;;;;;4.55;2.30;;;7.10;66.60;;;;;;4954773;28;86860;-85
2020/12/30 09:40:15;;;;;;;5.15;3.00;;;7.70;61.60;;;;;;4970292;28;88081;-85
2020/12/30 09:42:43;;;;;;;5.28;3.72;;;8.40;61.20;;;;;;4951436;28;86836;-86
2020/12/30 09:45:11;;;;;;;4.65;3.53;;;8.60;58.50;;;;;;4964247;28;87641;-83
2020/12/30 09:47:39;;;;;;;3.28;2.97;;;8.50;57.70;;;;;;4957181;28;87882;-87
2020/12/30 09:50:09;;;;;;;3.67;3.33;;;8.70;58.10;;;;;;4974840;28;87795;-88
2020/12/30 09:52:41;;;;;;;3.65;3.35;;;9.10;56.40;;;;;;4944017;28;86576;-87
2020/12/30 09:55:08;;;;;;;4.00;3.70;;;9.60;55.50;;;;;;4953217;28;87455;-88
2020/12/30 09:57:35;;;;;;;3.80;3.13;;;9.20;54.10;;;;;;4960529;28;87039;-89
2020/12/30 10:00:01;;;;;;;3.85;3.20;;;8.90;55.50;;;;;;4953981;28;86773;-89
2020/12/30 10:02:27;;;;;;;6.45;3.13;;;;;;;;;;4951958;28;86679;-88
2020/12/30 10:04:53;;;;;;;4.00;3.60;;;;;;;;;;4964467;28;87797;-88
2020/12/30 10:07:20;;;;;;;2.75;1.75;;;8.20;57.10;;;;;;4936064;28;90084;-89
2020/12/30 10:09:48;;;;;;;5.05;2.60;;;7.90;57.80;;;;;;4969059;28;86734;-89
2020/12/30 10:12:14;;;;;;;4.80;3.17;;;;;;;;;;4960420;28;86482;-87
2020/12/30 10:14:40;;;;;;;4.88;3.20;;;7.50;58.40;;;;;;4974026;28;86738;-89
2020/12/30 10:17:09;;;;;;;4.40;3.72;;;7.90;59.80;;;;;;4959211;28;86979;-88
2020/12/30 10:19:35;;;;;;;4.03;3.72;;;8.60;57.60;;;;;;4963237;28;88166;-84
2020/12/30 10:22:11;;;;;;;4.03;3.63;;;9.00;54.90;;;;;;4950670;28;86346;-88
2020/12/30 10:24:48;;;;;;;4.35;3.40;;;9.80;53.30;;;;;;4941503;28;87721;-88
2020/12/30 10:27:17;;;;;;;2.70;2.50;;;9.70;53.70;;;;;;4967380;28;88319;-89
2020/12/30 10:29:43;;;;;;;4.55;3.63;;;;;;;;;;4961799;28;88604;-87
2020/12/30 10:32:09;;;;;;;3.33;3.03;;;10.70;53.20;;;;;;4963695;28;86957;-86
2020/12/30 10:34:36;;;;;;;5.85;3.53;;;11.20;52.30;;;;;;4954602;28;87672;-87
2020/12/30 10:37:03;;;;;;;4.95;3.42;;;11.10;50.60;;;;;;4955564;28;87043;-87
2020/12/30 10:39:29;;;;;;;5.95;3.65;;;11.30;48.50;;;;;;4957665;28;86886;-88
2020/12/30 10:41:57;;;;;;;3.55;2.92;;;11.40;49.10;;;;;;4952039;28;86676;-89
2020/12/30 10:44:23;;;;;;;4.25;3.40;;;10.80;49.90;;;;;;4960070;28;88403;-89
2020/12/30 10:46:50;;;;;;;3.40;3.10;;;10.10;51.40;;;;;;4967431;28;88400;-84
2020/12/30 10:49:15;;;;;;;4.03;3.55;;;9.90;53.50;;;;;;4957404;28;86860;-87
2020/12/30 10:51:52;;;;;;;7.22;5.45;;;9.90;53.10;;;;;;4967450;28;86789;-87
2020/12/30 10:54:20;;;;;;;4.15;3.40;;;10.30;54.00;;;;;;4953079;28;87861;-88
2020/12/30 10:56:52;;;;;;;3.58;3.28;;;10.20;50.70;;;;;;4978586;28;87738;-83
2020/12/30 10:59:19;;;;;;;4.45;3.40;;;10.10;51.40;;;;;;4972345;28;86138;-84
2020/12/30 11:01:49;;;;;;;3.50;3.20;;;10.10;53.10;;;;;;4978715;28;86359;-87
2020/12/30 11:04:16;;;;;;;4.13;3.40;;;10.10;52.90;;;;;;4970417;28;87192;-87
2020/12/30 11:06:42;;;;;;;4.28;3.88;;;10.10;54.10;;;;;;4965321;28;87006;-88
2020/12/30 11:09:08;;;;;;;6.55;4.00;;;10.30;54.10;;;;;;4976694;28;86958;-86
2020/12/30 11:11:36;;;;;;;7.63;3.92;;;10.30;54.30;;;;;;4976531;28;85501;-86
2020/12/30 11:14:02;;;;;;;3.80;3.50;;;10.20;53.60;;;;;;4984898;28;87512;-83
2020/12/30 11:16:28;;;;;;;5.70;3.75;;;;;;;;;;4982145;28;87071;-87
2020/12/30 11:18:55;;;;;;;4.50;3.50;;;9.90;55.10;;;;;;4963133;28;87336;-87
2020/12/30 11:21:22;;;;;;;4.78;4.25;;;9.80;55.80;;;;;;4978891;28;86073;-85
2020/12/30 11:23:48;;;;;;;6.22;4.18;;;9.70;56.50;;;;;;4969506;28;87211;-85
2020/12/30 11:26:15;;;;;;;5.95;4.70;;;9.60;60.40;;;;;;4949849;28;87574;-85
2020/12/30 11:28:41;;;;;;;4.43;3.92;;;9.40;63.50;;;;;;4959839;28;86907;-84
2020/12/30 11:31:08;;;;;;;4.95;4.55;;;9.20;65.20;;;;;;4963492;28;86918;-84
2020/12/30 11:33:34;;;;;;;5.13;4.63;;;9.10;66.70;;;;;;4951552;28;86758;-89
2020/12/30 11:36:01;;;;;;;5.03;4.53;;;8.90;67.60;;;;;;4952402;28;86970;-85
2020/12/30 11:38:27;;;;;;;4.97;3.92;;;8.70;68.80;;;;;;4947934;28;86628;-87
2020/12/30 11:40:54;;;;;;;3.50;3.20;;;8.70;68.90;;;;;;4951617;28;86981;-89
2020/12/30 11:43:20;;;;;;;4.90;4.38;;;8.70;69.80;;;;;;4956455;28;87908;-87
2020/12/30 11:45:46;;;;;;;7.50;5.35;;;8.60;70.30;;;;;;4945711;28;91727;-87
2020/12/30 11:48:11;;;;;;;7.57;5.10;;;8.40;70.90;;;;;;4951433;28;86761;-87
2020/12/30 11:50:37;;;;;;;7.05;5.25;;;8.30;71.00;;;;;;4955181;28;86944;-87
2020/12/30 11:53:18;;;;;;;6.45;5.85;;;8.30;71.70;;;;;;4966772;28;90310;-87
2020/12/30 11:55:44;;;;;;;6.40;4.72;;;8.20;72.70;;;;;;4955410;28;86716;-87
2020/12/30 11:58:09;;;;;;;2.97;1.98;;;8.20;72.70;;;;;;4933561;28;87017;-87
2020/12/30 12:00:35;;;;;;;2.40;2.30;;;8.00;71.80;;;;;;4954697;28;86403;-87
2020/12/30 12:03:01;;;;;;;2.42;2.22;;;7.80;71.50;;;;;;4949408;28;87208;-89
2020/12/30 12:05:27;;;;;;;2.85;2.40;;;;;;;;;;4959374;28;87198;-86
2020/12/30 12:07:53;;;;;;;2.47;2.28;;;7.70;71.60;;;;;;4959215;28;87921;-87
2020/12/30 12:10:19;;;;;;;2.67;2.00;;;7.20;72.90;;;;;;4965369;28;87010;-87
2020/12/30 12:12:45;;;;;;;2.50;2.30;;;6.80;75.10;;;;;;4952453;28;87086;-83
2020/12/30 12:15:12;;;;;;;2.60;2.40;;;6.90;75.20;;;;;;4940975;28;87856;-85
2020/12/30 12:17:37;;;;;;;2.97;2.72;;;6.70;79.00;;;;;;4963585;28;87003;-86
2020/12/30 12:20:03;;;;;;;2.55;2.35;;;6.70;79.50;;;;;;4954800;28;86929;-84
2020/12/30 12:22:32;;;;;;;2.72;2.53;;;6.30;80.90;;;;;;4948023;28;91317;-85
2020/12/30 12:24:58;;;;;;;2.60;2.40;;;6.30;81.50;;;;;;4962697;28;87072;-85
2020/12/30 12:27:24;;;;;;;3.42;3.22;;;6.30;81.80;;;;;;4943440;28;87060;-85
2020/12/30 12:29:51;;;;;;;2.83;2.63;;;6.10;84.90;;;;;;4963627;28;87299;-85
2020/12/30 12:32:25;;;;;;;3.58;2.90;;;6.10;86.10;;;;;;4963854;28;88210;-85
2020/12/30 12:34:52;;;;;;;2.60;2.40;;;5.90;86.50;;;;;;4960428;28;87950;-85
2020/12/30 12:37:22;;;;;;;2.50;2.20;;;5.80;88.40;;;;;;4955097;28;86749;-85
2020/12/30 12:39:50;;;;;;;4.47;2.60;;;5.80;89.90;;;;;;4944841;28;86905;-84
2020/12/30 12:42:17;;;;;;;3.15;2.88;;;5.70;90.30;;;;;;4961287;28;87000;-85
2020/12/30 12:44:43;;;;;;;2.55;2.10;;;5.50;90.60;;;;;;4952093;28;86798;-85
2020/12/30 12:47:09;;;;;;;3.25;2.88;;;;;;;;;;4948992;28;87275;-86
2020/12/30 12:49:35;;;;;;;2.92;2.58;;;5.40;91.30;;;;;;4925054;28;87759;-86
2020/12/30 12:52:04;;;;;;;6.10;3.78;;;5.20;89.90;;;;;;4934047;28;87077;-85
2020/12/30 12:54:31;;;;;;;4.20;3.70;;;5.10;88.20;;;;;;4940255;28;87027;-83
2020/12/30 12:56:59;;;;;;;4.65;3.70;;;5.10;87.80;;;;;;4935583;28;87860;-84
2020/12/30 12:59:25;;;;;;;6.45;3.80;;;5.10;88.30;;;;;;4945663;28;86517;-84
2020/12/30 13:01:51;;;;;;;6.65;4.32;;;5.30;86.50;;;;;;4946203;28;87439;-84
2020/12/30 13:04:17;;;;;;;7.15;4.82;;;;;;;;;;4950135;28;87062;-84
2020/12/30 13:06:45;;;;;;;8.73;4.95;;;5.30;81.30;;;;;;4942726;28;86833;-85
2020/12/30 13:09:12;;;;;;;6.55;4.20;;;5.20;81.80;;;;;;4945275;28;86515;-85
2020/12/30 13:11:48;;;;;;;6.72;4.63;;;5.30;82.20;;;;;;4953717;28;87293;-84
2020/12/30 13:14:15;;;;;;;8.00;4.80;;;5.30;81.80;;;;;;4947695;28;87479;-84
2020/12/30 13:16:49;;;;;;;8.85;5.85;;;5.20;81.80;;;;;;4932761;28;86981;-83
2020/12/30 13:19:16;;;;;;;7.80;4.72;;;5.00;83.10;;;;;;4958896;28;86690;-84
2020/12/30 13:21:42;;;;;;;5.53;4.45;;;5.00;83.50;;;;;;4950847;28;87824;-85
2020/12/30 13:24:08;;;;;;;6.32;4.00;;;4.90;83.80;;;;;;4933903;28;88757;-85
2020/12/30 13:26:34;;;;;;;8.35;5.03;;;4.90;84.50;;;;;;4947092;28;87055;-85
2020/12/30 13:29:00;;;;;;;9.68;4.80;;;4.80;85.10;;;;;;4947895;28;87079;-86
2020/12/30 13:31:26;;;;;;;11.18;5.15;;;4.80;86.00;;;;;;4923858;28;90108;-85
2020/12/30 13:33:53;;;;;;;7.68;5.10;;;4.80;85.80;;;;;;4949419;28;86946;-85
2020/12/30 13:36:23;;;;;;;9.32;4.93;;;4.80;85.80;;;;;;4943305;28;86972;-85
2020/12/30 13:38:51;;;;;;;6.93;5.15;;;4.70;86.70;;;;;;4940925;28;85927;-82
2020/12/30 13:41:18;;;;;;;6.97;5.88;;;4.80;86.90;;;;;;4947504;28;87242;-85
2020/12/30 13:43:45;;;;;;;8.02;5.28;;;4.80;86.00;;;;;;4938629;28;87913;-83
2020/12/30 13:46:11;;;;;;;7.20;5.25;;;4.70;86.50;;;;;;4953461;28;87838;-83
2020/12/30 13:48:37;;;;;;;8.43;5.20;;;;;;;;;;4959791;28;86973;-82
2020/12/30 13:51:07;;;;;;;7.47;4.18;;;4.70;86.70;;;;;;4971397;28;87218;-83
2020/12/30 13:53:33;;;;;;;6.70;4.60;;;4.70;88.30;;;;;;4966634;28;87194;-84
2020/12/30 13:55:59;;;;;;;5.38;4.20;;;4.60;88.60;;;;;;4972578;28;86979;-83
2020/12/30 13:58:25;;;;;;;7.68;3.63;;;4.60;90.10;;;;;;4968802;28;86850;-83
2020/12/30 14:00:51;;;;;;;6.40;4.70;;;4.60;90.60;;;;;;4972356;28;86596;-84
2020/12/30 14:03:18;;;;;;;9.70;4.63;;;4.50;90.80;;;;;;4970497;28;87379;-84
2020/12/30 14:05:53;;;;;;;4.20;3.80;;;4.40;91.10;;;;;;4968087;28;87471;-84
2020/12/30 14:08:19;;;;;;;6.13;4.18;;;;;;;;;;4953290;28;87123;-84
2020/12/30 14:10:45;;;;;;;8.05;4.65;;;4.40;91.50;;;;;;4967539;28;87912;-84
2020/12/30 14:13:12;;;;;;;5.05;3.88;;;;;;;;;;4959044;28;88369;-85
2020/12/30 14:15:38;;;;;;;6.50;4.45;;;4.20;92.20;;;;;;4955515;28;86979;-89
2020/12/30 14:18:06;;;;;;;3.47;3.17;;;4.30;92.30;;;;;;4958914;28;86477;-83
2020/12/30 14:20:33;;;;;;;4.80;4.30;;;4.20;93.20;;;;;;4965321;28;87173;-86
2020/12/30 14:22:59;;;;;;;5.00;4.00;;;4.10;93.50;;;;;;4945373;28;88344;-85
2020/12/30 14:25:25;;;;;;;6.05;2.88;;;4.30;93.70;;;;;;4967373;28;86982;-86
2020/12/30 14:27:51;;;;;;;4.35;3.95;;;4.30;94.60;;;;;;4956884;28;85891;-86
2020/12/30 14:30:17;;;;;;;6.85;5.00;;;4.20;94.80;;;;;;4952867;28;86929;-89
2020/12/30 14:32:43;;;;;;;5.45;4.80;;;;;;;;;;4967138;28;88334;-88
2020/12/30 14:35:09;;;;;;;5.68;5.07;;;;;;;;;;4959349;28;87558;-82
2020/12/30 14:37:37;;;;;;;4.35;2.85;;;4.50;94.30;;;;;;4942805;28;86847;-82
2020/12/30 14:40:04;;;;;;;3.97;3.03;;;4.60;94.00;;;;;;4956556;28;88064;-83
2020/12/30 14:42:30;;;;;;;6.22;3.80;;;4.60;94.60;;;;;;4952457;28;87028;-83
2020/12/30 14:44:56;;;;;;;3.20;2.72;;;4.60;93.80;;;;;;4954666;28;86923;-83
2020/12/30 14:47:22;;;;;;;5.70;3.10;;;4.60;94.00;;;;;;4945785;28;87147;-81
2020/12/30 14:49:47;;;;;;;6.75;6.05;;;4.50;94.50;;;;;;4936218;28;87274;-81
2020/12/30 14:52:13;;;;;;;5.13;4.15;;;4.40;94.80;;;;;;4937564;28;86399;-84
2020/12/30 14:54:39;;;;;;;6.78;4.10;;;4.50;94.80;;;;;;4935339;28;86928;-81
2020/12/30 14:57:04;;;;;;;4.25;3.85;;;4.50;95.10;;;;;;4932218;28;86267;-81
2020/12/30 14:59:30;;;;;;;4.40;3.17;;;4.50;94.50;;;;;;4913838;28;91372;-82
2020/12/30 15:01:55;;;;;;;8.02;4.65;;;4.70;94.10;;;;;;4931480;28;88081;-83
2020/12/30 15:04:21;;;;;;;7.05;5.15;;;4.80;94.40;;;;;;4935283;28;86982;-83
2020/12/30 15:06:47;;;;;;;6.53;3.95;;;4.90;94.40;;;;;;4934770;28;87073;-83
2020/12/30 15:09:13;;;;;;;4.80;4.07;;;4.90;93.70;;;;;;4934600;28;88237;-84
2020/12/30 15:11:38;;;;;;;6.03;4.47;;;4.90;93.40;;;;;;4934403;28;86894;-83
2020/12/30 15:14:04;;;;;;;5.15;4.65;;;4.90;93.70;;;;;;4933789;28;86739;-83
2020/12/30 15:16:30;;;;;;;7.78;4.97;;;4.80;93.80;;;;;;4923166;28;87594;-83
2020/12/30 15:18:56;;;;;;;7.30;5.60;;;;;;;;;;4918218;28;89490;-83
2020/12/30 15:21:21;;;;;;;8.63;6.10;;;4.50;94.50;;;;;;4936625;28;87328;-80
2020/12/30 15:23:47;;;;;;;7.03;5.50;;;4.50;94.60;;;;;;4948425;28;87184;-79
2020/12/30 15:26:13;;;;;;;7.45;6.10;;;4.50;94.70;;;;;;4944437;28;86574;-83
2020/12/30 15:28:39;;;;;;;8.35;6.53;;;;;;;;;;4916434;28;88528;-80
2020/12/30 15:31:06;;;;;;;9.07;6.00;;;4.00;95.70;;;;;;4937199;28;87063;-79
2020/12/30 15:33:32;;;;;;;9.95;6.57;;;;;;;;;;4943898;28;86626;-78
2020/12/30 15:35:57;;;;;;;7.63;6.30;;;4.00;96.20;;;;;;4934952;28;86185;-82
2020/12/30 15:38:24;;;;;;;9.82;6.57;;;3.70;96.40;;;;;;4939720;28;88232;-83
2020/12/30 15:40:50;;;;;;;7.25;5.88;;;3.60;96.70;;;;;;4935109;28;87134;-81
2020/12/30 15:43:15;;;;;;;6.82;5.05;;;3.60;97.30;;;;;;4935921;28;87109;-83
2020/12/30 15:45:48;;;;;;;6.47;5.15;;;3.40;97.20;;;;;;4929767;28;87026;-81
2020/12/30 15:48:17;;;;;;;6.30;5.70;;;3.40;98.00;;;;;;4934002;28;88663;-81
2020/12/30 15:50:44;;;;;;;7.22;5.72;;;3.30;98.20;;;;;;4938311;28;87729;-83
2020/12/30 15:53:10;;;;;;;6.88;5.25;;;3.30;98.40;;;;;;4939177;28;87051;-82
2020/12/30 15:55:36;;;;;;;7.55;5.35;;;3.20;99.30;;;;;;4937887;28;87049;-82
2020/12/30 15:58:02;;;;;;;6.88;5.53;;;3.00;99.60;;;;;;4940459;28;86989;-81
2020/12/30 16:00:28;;;;;;;6.65;5.38;;;2.80;99.90;;;;;;4939237;28;87730;-83
2020/12/30 16:02:54;;;;;;;7.22;5.65;;;2.90;99.90;;;;;;4934675;28;86745;-83
2020/12/30 16:05:21;;;;;;;8.88;5.50;;;2.90;99.90;;;;;;4938432;28;86195;-83
2020/12/30 16:07:47;;;;;;;8.18;5.35;;;2.70;99.90;;;;;;4937847;28;87773;-82
2020/12/30 16:10:13;;;;;;;5.35;4.85;;;2.50;99.90;;;;;;4935921;28;86873;-83
2020/12/30 16:12:39;;;;;;;4.68;4.03;;;2.50;99.90;;;;;;4921952;28;87978;-83
2020/12/30 16:15:04;;;;;;;5.13;4.60;;;2.60;99.90;;;;;;4932773;28;86879;-82
2020/12/30 16:17:30;;;;;;;4.63;4.22;;;2.60;99.90;;;;;;4927932;28;87045;-82
2020/12/30 16:19:56;;;;;;;5.25;4.13;;;2.60;99.90;;;;;;4934643;28;87448;-83
2020/12/30 16:22:22;;;;;;;3.63;3.00;;;;;;;;;;4935899;28;86929;-81
2020/12/30 16:24:47;;;;;;;6.20;4.95;;;2.40;99.90;;;;;;4932338;28;86774;-81
2020/12/30 16:27:13;;;;;;;9.88;6.47;;;2.50;99.90;;;;;;4912800;28;88933;-82
2020/12/30 16:29:39;;;;;;;9.38;6.60;;;2.20;99.90;;;;;;4923413;28;90351;-79
2020/12/30 16:32:05;;;;;;;10.55;7.30;;;2.30;99.90;;;;;;4937962;28;87447;-80
2020/12/30 16:34:31;;;;;;;10.70;7.35;;;;;;;;;;4933460;28;86929;-82
2020/12/30 16:36:57;;;;;;;10.35;6.03;;;2.20;99.90;;;;;;4932299;28;89051;-80
2020/12/30 16:39:23;;;;;;;15.80;9.05;;;;;;;;;;4931242;28;87936;-80
2020/12/30 16:41:48;;;;;;;16.05;8.40;;;1.90;99.90;;;;;;4936719;28;86954;-81
2020/12/30 16:44:14;;;;;;;20.50;10.38;;;2.30;99.90;;;;;;4936548;28;87483;-81
2020/12/30 16:46:40;;;;;;;14.93;9.20;;;1.90;99.90;;;;;;4943348;28;87665;-82
2020/12/30 16:49:06;;;;;;;12.32;7.30;;;2.00;99.90;;;;;;4956035;28;87000;-80
2020/12/30 16:51:32;;;;;;;13.63;8.52;;;1.70;99.90;;;;;;4960767;28;86639;-82
2020/12/30 16:53:57;;;;;;;10.32;8.02;;;1.70;99.90;;;;;;4956700;28;86141;-83
2020/12/30 16:56:23;;;;;;;14.20;7.93;;;1.80;99.90;;;;;;4955187;28;87291;-82
2020/12/30 16:58:49;;;;;;;16.50;9.35;;;;;;;;;;4957110;28;87021;-82